Time;durP1;ratioP1;P1;durP2;ratioP2;P2;SDS_P1;SDS_P2;PMS_P1;PMS_P2;Temp;Humidity;BMP_temperature;BMP_pressure;BME280_temperature;BME280_humidity;BME280_pressure;Samples;Min_cycle;Max_cycle;Signal;HPM_P1;HPM_P2
2021/03/18 00:01:17;;;;;;;2.28;2.08;;;;;;;4.81;65.54;98164.06;4893442;29;20115;-79
2021/03/18 00:03:44;;;;;;;1.77;1.65;;;;;;;4.84;65.57;98167.28;4887141;29;20113;-78
2021/03/18 00:06:10;;;;;;;1.60;1.50;;;;;;;4.86;65.30;98183.69;4902796;29;20047;-78
2021/03/18 00:08:37;;;;;;;2.75;1.98;;;;;;;4.87;65.39;98174.69;4888517;29;20032;-78
2021/03/18 00:11:07;;;;;;;2.25;2.00;;;;;;;4.89;65.29;98183.97;4903014;29;20032;-79
2021/03/18 00:13:33;;;;;;;3.70;2.15;;;;;;;4.92;65.44;98177.34;4910224;29;20032;-79
2021/03/18 00:16:00;;;;;;;1.63;1.52;;;;;;;4.93;65.09;98186.88;4895380;29;20500;-78
2021/03/18 00:18:31;;;;;;;2.05;1.85;;;;;;;4.95;65.20;98185.56;4888388;29;20119;-78
2021/03/18 00:20:57;;;;;;;2.75;1.80;;;;;;;4.96;65.35;98184.53;4900363;29;20123;-78
2021/03/18 00:23:23;;;;;;;2.22;1.80;;;;;;;4.98;65.16;98181.63;4899855;29;20048;-78
2021/03/18 00:25:48;;;;;;;1.70;1.60;;;;;;;4.99;64.91;98185.06;4889650;29;20601;-78
2021/03/18 00:28:33;;;;;;;1.83;1.67;;;;;;;5.02;64.82;98195.16;4890341;29;20092;-82
2021/03/18 00:36:59;;;;;;;2.42;1.92;;;;;;;5.07;64.60;98188.00;5399411;23;20130;-81
2021/03/18 00:39:24;;;;;;;3.15;1.90;;;;;;;5.06;64.34;98191.69;4920812;29;20512;-79
2021/03/18 00:41:50;;;;;;;2.10;1.90;;;;;;;5.08;64.04;98196.75;4920686;29;20028;-81
2021/03/18 00:44:15;;;;;;;2.65;2.08;;;;;;;5.07;63.98;98195.94;4912254;29;20039;-81
2021/03/18 00:46:41;;;;;;;2.90;2.53;;;;;;;5.11;64.17;98201.53;4920780;29;20026;-80
2021/03/18 00:49:08;;;;;;;2.38;2.17;;;;;;;5.12;63.93;98203.91;4921051;29;20518;-82
2021/03/18 00:54:56;;;;;;;2.20;1.95;;;;;;;5.15;63.58;98204.44;4927499;29;20095;-81
2021/03/18 00:57:23;;;;;;;2.95;1.80;;;;;;;5.16;63.66;98206.84;4920441;29;20032;-80
2021/03/18 00:59:48;;;;;;;2.20;2.00;;;;;;;5.17;63.64;98202.34;4925583;29;20107;-79
2021/03/18 01:02:15;;;;;;;2.70;2.08;;;;;;;5.16;63.36;98198.88;4920016;29;20051;-79
2021/03/18 01:04:43;;;;;;;2.67;2.47;;;;;;;5.15;63.15;98192.00;4930679;29;20106;-78
2021/03/18 01:07:08;;;;;;;4.32;3.08;;;;;;;5.18;63.50;98204.72;4937418;29;20122;-78
2021/03/18 01:09:34;;;;;;;2.38;2.15;;;;;;;5.19;62.85;98203.69;4941359;29;20071;-78
2021/03/18 01:11:59;;;;;;;2.30;2.00;;;;;;;5.20;63.05;98188.56;4928900;29;20032;-78
2021/03/18 01:14:24;;;;;;;2.30;2.00;;;;;;;5.20;63.26;98199.97;4921479;29;20043;-78
2021/03/18 01:16:52;;;;;;;2.65;2.30;;;;;;;5.23;63.35;98198.66;4920136;29;20046;-78
2021/03/18 01:23:20;;;;;;;3.05;2.35;;;;;;;5.24;62.87;98195.72;4939515;29;20047;-83
2021/03/18 01:46:41;;;;;;;3.45;2.47;;;;;;;5.17;62.97;98205.00;5866555;23;20089;-81
2021/03/18 01:49:07;;;;;;;4.10;2.70;;;;;;;5.15;63.06;98207.91;4906567;29;20036;-78
2021/03/18 01:51:32;;;;;;;2.50;2.28;;;;;;;5.13;62.93;98212.69;4900710;29;20028;-78
2021/03/18 01:53:58;;;;;;;3.17;2.45;;;;;;;5.11;63.37;98220.09;4900122;29;20134;-79
2021/03/18 01:56:24;;;;;;;3.50;2.45;;;;;;;5.08;63.15;98223.25;4902430;29;20043;-79
2021/03/18 01:58:50;;;;;;;3.22;2.80;;;;;;;5.10;63.27;98226.44;4901706;29;20047;-79
2021/03/18 02:01:18;;;;;;;2.47;2.08;;;;;;;5.08;63.22;98221.41;4895989;29;20032;-79
2021/03/18 02:04:16;;;;;;;3.15;2.58;;;;;;;5.08;63.58;98221.41;4899207;29;20485;-81
2021/03/18 02:06:42;;;;;;;3.53;2.35;;;;;;;5.07;63.63;98227.75;4906834;29;20492;-79
2021/03/18 02:09:08;;;;;;;3.22;2.67;;;;;;;5.07;63.61;98238.34;4902803;29;20429;-79
2021/03/18 02:11:33;;;;;;;3.38;2.85;;;;;;;5.07;63.99;98238.34;4902295;29;20036;-80
2021/03/18 02:14:00;;;;;;;3.22;2.60;;;;;;;5.09;63.92;98243.38;4902545;29;20024;-81
2021/03/18 02:20:42;;;;;;;3.42;2.53;;;;;;;5.10;63.82;98250.28;4905096;29;20485;-80
2021/03/18 02:23:52;;;;;;;3.53;3.20;;;;;;;5.07;63.51;98256.91;4885357;29;20047;-80
2021/03/18 02:26:51;;;;;;;4.75;2.80;;;;;;;5.09;63.76;98259.28;4886245;29;20080;-82
2021/03/18 02:30:08;;;;;;;3.58;2.78;;;;;;;5.09;63.85;98265.41;4911563;29;20107;-82
2021/03/18 02:56:12;;;;;;;4.38;3.03;;;;;;;5.17;63.13;98282.66;4929700;29;20117;-80
2021/03/18 02:59:02;;;;;;;4.32;3.30;;;;;;;5.17;62.65;98280.00;4899977;29;20051;-78
2021/03/18 03:01:28;;;;;;;5.35;3.50;;;;;;;5.17;62.85;98280.00;4912711;29;20127;-79
2021/03/18 03:03:55;;;;;;;5.18;3.60;;;;;;;5.20;62.76;98283.97;4915551;29;20055;-78
2021/03/18 03:06:21;;;;;;;4.40;3.17;;;;;;;5.21;63.07;98285.59;4904889;29;20032;-78
2021/03/18 03:08:47;;;;;;;4.05;3.63;;;;;;;5.22;62.80;98295.13;4909741;29;20032;-77
2021/03/18 03:11:14;;;;;;;6.13;4.00;;;;;;;5.24;62.23;98287.72;4902839;29;20495;-80
2021/03/18 03:13:43;;;;;;;6.25;3.70;;;;;;;5.26;62.18;98286.41;4914257;29;20025;-79
2021/03/18 03:16:16;;;;;;;7.18;4.07;;;;;;;5.27;61.94;98293.31;4905272;29;20071;-78
2021/03/18 03:18:43;;;;;;;5.78;4.25;;;;;;;5.28;61.61;98284.31;4904411;29;20036;-77
2021/03/18 03:21:11;;;;;;;4.53;3.33;;;;;;;5.29;61.78;98285.88;4905594;29;20538;-78
2021/03/18 03:23:37;;;;;;;5.78;3.95;;;;;;;5.30;62.04;98294.66;4905779;29;20115;-77
2021/03/18 03:26:03;;;;;;;4.30;3.65;;;;;;;5.31;61.76;98298.06;4905800;29;20068;-77
2021/03/18 03:28:31;;;;;;;5.38;3.47;;;;;;;5.32;61.60;98295.16;4905427;29;20034;-77
2021/03/18 03:30:57;;;;;;;4.20;3.38;;;;;;;5.33;61.34;98293.31;4904093;29;20440;-79
2021/03/18 03:33:23;;;;;;;6.18;4.65;;;;;;;5.33;61.76;98301.28;4904094;29;20037;-79
2021/03/18 03:35:49;;;;;;;5.97;3.75;;;;;;;5.36;61.29;98301.56;4904845;29;20403;-78
2021/03/18 03:38:15;;;;;;;5.07;3.50;;;;;;;5.37;61.54;98313.75;4889796;29;20100;-79
2021/03/18 03:40:40;;;;;;;4.97;3.85;;;;;;;5.38;61.00;98303.94;4904335;29;20036;-78
2021/03/18 03:43:07;;;;;;;4.50;3.58;;;;;;;5.37;60.79;98308.47;4902429;29;20407;-79
2021/03/18 03:45:32;;;;;;;4.18;3.55;;;;;;;5.38;61.09;98310.06;4904481;29;20033;-79
2021/03/18 03:47:58;;;;;;;5.82;3.85;;;;;;;5.39;61.12;98310.84;4904747;29;20408;-79
2021/03/18 03:50:26;;;;;;;4.93;3.92;;;;;;;5.39;60.68;98308.19;4903798;29;20084;-79
2021/03/18 03:53:13;;;;;;;4.68;3.85;;;;;;;5.39;60.88;98310.84;4889131;29;20044;-79
2021/03/18 03:55:42;;;;;;;5.43;4.03;;;;;;;5.36;60.55;98303.41;4907384;29;20067;-80
2021/03/18 03:58:32;;;;;;;4.10;3.70;;;;;;;5.38;60.61;98312.72;4915276;29;20068;-82
2021/03/18 04:01:12;;;;;;;5.28;3.53;;;;;;;5.39;60.94;98316.16;4905495;29;20048;-78
2021/03/18 04:03:38;;;;;;;5.15;4.22;;;;;;;5.39;60.40;98313.50;4904112;29;20032;-78
2021/03/18 04:06:06;;;;;;;6.75;3.95;;;;;;;5.39;60.50;98310.84;4902942;29;20128;-78
2021/03/18 04:08:35;;;;;;;6.53;4.60;;;;;;;5.38;60.56;98312.72;4904151;29;20481;-78
2021/03/18 04:11:01;;;;;;;5.53;4.30;;;;;;;5.38;60.37;98315.38;4901205;29;20276;-77
2021/03/18 04:13:30;;;;;;;4.90;4.07;;;;;;;5.40;60.41;98320.41;4903679;29;20032;-77
2021/03/18 04:15:57;;;;;;;;;;;;;;;5.42;60.42;98324.38;4903245;29;20501;-78
2021/03/18 04:18:27;;;;;;;6.75;5.10;;;;;;;5.41;60.51;98333.38;4889362;29;19922;-79
2021/03/18 04:20:53;;;;;;;6.20;4.30;;;;;;;5.41;60.80;98336.03;4905272;29;20032;-78
2021/03/18 04:23:22;;;;;;;9.30;4.55;;;;;;;5.40;60.83;98331.00;4906684;29;20037;-79
2021/03/18 04:26:01;;;;;;;5.28;4.35;;;;;;;5.40;61.07;98337.09;4891831;29;20210;-80
2021/03/18 04:28:29;;;;;;;9.43;4.30;;;;;;;5.40;61.27;98338.97;4902822;29;20036;-78
2021/03/18 04:34:29;;;;;;;6.10;4.30;;;;;;;5.39;61.77;98340.81;4904751;29;20043;-80
2021/03/18 04:36:57;;;;;;;6.05;4.60;;;;;;;5.37;61.56;98345.59;4903223;29;20036;-79
2021/03/18 04:42:10;;;;;;;7.35;4.95;;;;;;;5.36;61.38;98349.28;5234444;23;20063;-79
2021/03/18 04:44:36;;;;;;;6.30;4.82;;;;;;;5.36;61.79;98354.59;4904366;29;20044;-77
2021/03/18 04:47:03;;;;;;;7.30;5.30;;;;;;;5.36;61.79;98357.25;4899091;29;20024;-77
2021/03/18 04:49:29;;;;;;;9.57;5.15;;;;;;;5.37;61.67;98355.38;4893921;29;20051;-79
2021/03/18 04:51:55;;;;;;;6.28;5.07;;;;;;;5.38;61.52;98355.13;4918165;29;20068;-78
2021/03/18 04:54:21;;;;;;;5.20;4.53;;;;;;;5.37;61.56;98361.50;4892838;29;20036;-79
2021/03/18 04:56:49;;;;;;;5.47;4.68;;;;;;;5.39;61.16;98369.97;4917419;29;20043;-79
2021/03/18 04:59:16;;;;;;;7.10;4.85;;;;;;;5.40;61.33;98374.22;4883467;29;20036;-79
2021/03/18 05:01:48;;;;;;;6.17;4.17;;;;;;;5.42;61.12;98380.06;4886686;29;20028;-80
2021/03/18 05:04:17;;;;;;;5.40;4.43;;;;;;;5.42;61.22;98372.13;4893532;29;20373;-79
2021/03/18 05:06:51;;;;;;;8.20;5.72;;;;;;;5.41;61.23;98367.06;4911472;29;20064;-80
2021/03/18 05:09:24;;;;;;;5.90;5.18;;;;;;;5.43;61.39;98368.41;4869163;29;20033;-79
2021/03/18 05:11:53;;;;;;;7.82;5.68;;;;;;;5.47;60.87;98383.78;4872565;29;20039;-79
2021/03/18 05:14:41;;;;;;;6.60;4.82;;;;;;;5.48;61.09;98377.44;4887709;29;20084;-81
2021/03/18 05:17:08;;;;;;;7.72;5.38;;;;;;;5.50;60.91;98383.28;4905377;29;20032;-78
2021/03/18 05:19:35;;;;;;;9.70;5.72;;;;;;;5.49;60.67;98382.47;4891930;29;20037;-76
2021/03/18 05:22:01;;;;;;;7.45;5.32;;;;;;;5.50;60.62;98393.91;4917402;29;20048;-74
2021/03/18 05:24:28;;;;;;;8.02;5.07;;;;;;;5.52;60.75;98395.22;4900427;29;20068;-78
2021/03/18 05:26:53;;;;;;;6.22;5.03;;;;;;;5.55;60.95;98397.34;4888276;29;20512;-79
2021/03/18 05:29:19;;;;;;;9.88;5.03;;;;;;;5.58;60.41;98404.81;4883697;29;20060;-78
2021/03/18 05:31:45;;;;;;;8.07;5.88;;;;;;;5.64;60.66;98400.31;4881292;29;20025;-77
2021/03/18 05:34:11;;;;;;;8.15;5.68;;;;;;;5.69;60.05;98408.31;4883323;29;20028;-78
2021/03/18 05:36:37;;;;;;;7.03;5.00;;;;;;;5.74;60.24;98396.91;4884543;29;20515;-79
2021/03/18 05:39:04;;;;;;;10.65;5.05;;;;;;;5.82;59.89;98406.22;4900680;29;20025;-78
2021/03/18 05:41:30;;;;;;;5.32;4.78;;;;;;;5.89;59.74;98409.44;4885290;29;20048;-79
2021/03/18 05:43:56;;;;;;;5.78;4.55;;;;;;;5.95;59.25;98410.25;4884669;29;20091;-78
2021/03/18 05:46:22;;;;;;;9.52;5.25;;;;;;;6.00;59.22;98399.69;4883963;29;20084;-78
2021/03/18 05:48:49;;;;;;;9.27;5.00;;;;;;;6.09;58.91;98412.19;4886249;29;20104;-79
2021/03/18 05:51:19;;;;;;;8.10;5.38;;;;;;;6.19;58.50;98415.91;4889654;29;20032;-77
2021/03/18 05:53:46;;;;;;;7.18;4.80;;;;;;;6.30;58.50;98420.19;4903780;29;20123;-76
2021/03/18 05:56:21;;;;;;;7.18;5.22;;;;;;;6.36;58.19;98416.47;4902681;29;20036;-78
2021/03/18 05:58:49;;;;;;;4.93;4.43;;;;;;;6.44;57.85;98419.69;4901558;29;20067;-76
2021/03/18 06:01:16;;;;;;;7.55;5.07;;;;;;;6.50;56.74;98426.59;4885758;29;20035;-77
2021/03/18 06:03:44;;;;;;;6.53;4.70;;;;;;;6.53;57.32;98428.69;4883281;29;20092;-77
2021/03/18 06:06:10;;;;;;;7.78;5.13;;;;;;;6.58;56.77;98426.06;4882819;29;20453;-79
2021/03/18 06:08:37;;;;;;;6.63;4.07;;;;;;;6.64;57.06;98426.84;4882336;29;20028;-77
2021/03/18 06:11:05;;;;;;;8.52;5.78;;;;;;;6.70;56.65;98425.78;4897260;29;20115;-77
2021/03/18 06:13:31;;;;;;;5.55;4.70;;;;;;;6.73;56.34;98431.38;4882296;29;20029;-77
2021/03/18 06:15:57;;;;;;;9.18;5.90;;;;;;;6.81;56.21;98440.69;4879591;29;20489;-77
2021/03/18 06:18:23;;;;;;;7.28;5.20;;;;;;;6.86;56.30;98440.69;4883203;29;20039;-77
2021/03/18 06:20:50;;;;;;;7.88;5.45;;;;;;;6.91;55.33;98449.72;4880417;29;20029;-77
2021/03/18 06:23:16;;;;;;;6.07;4.97;;;;;;;6.96;55.72;98447.88;4881474;29;20028;-77
2021/03/18 06:25:42;;;;;;;7.88;5.47;;;;;;;7.01;54.49;98447.84;4881406;29;20501;-77
2021/03/18 06:28:23;;;;;;;6.38;4.65;;;;;;;7.01;55.08;98457.69;4881878;29;20036;-77
2021/03/18 06:31:12;;;;;;;7.57;5.38;;;;;;;7.08;54.86;98452.91;4898129;29;20087;-77
2021/03/18 06:33:43;;;;;;;6.57;4.80;;;;;;;7.15;54.78;98450.78;4884222;29;20033;-78
2021/03/18 06:36:22;;;;;;;6.78;5.40;;;;;;;7.22;54.71;98456.59;4881109;29;20060;-76
2021/03/18 06:39:07;;;;;;;8.07;5.25;;;;;;;7.29;53.82;98460.88;4897853;29;20033;-77
2021/03/18 06:41:38;;;;;;;6.47;4.72;;;;;;;7.33;53.91;98459.25;4881991;29;20492;-78
2021/03/18 06:44:25;;;;;;;6.38;4.07;;;;;;;7.39;53.73;98476.81;4899687;29;20374;-77
2021/03/18 06:46:52;;;;;;;5.13;4.45;;;;;;;7.43;53.67;98464.53;4881552;29;20033;-77
2021/03/18 06:49:21;;;;;;;4.37;3.77;;;;;;;7.48;53.11;98467.22;4895955;29;20037;-77
2021/03/18 06:52:08;;;;;;;6.07;4.25;;;;;;;7.58;53.45;98465.59;4880142;29;20032;-79
2021/03/18 06:54:55;;;;;;;7.75;4.50;;;;;;;7.66;52.97;98479.13;4880533;29;20043;-78
2021/03/18 06:57:20;;;;;;;5.50;4.43;;;;;;;7.72;52.34;98485.25;4881550;29;20024;-76
2021/03/18 06:59:46;;;;;;;6.93;4.85;;;;;;;7.77;52.20;98487.88;4879781;29;20378;-79
2021/03/18 07:02:17;;;;;;;6.68;4.80;;;;;;;7.80;52.22;98475.91;4898015;29;20382;-79
2021/03/18 07:04:44;;;;;;;6.30;4.22;;;;;;;7.82;52.02;98484.41;4881953;29;20104;-79
2021/03/18 07:07:11;;;;;;;4.93;4.03;;;;;;;7.86;51.55;98488.16;4881043;29;20040;-79
2021/03/18 07:09:37;;;;;;;5.88;3.97;;;;;;;7.90;51.76;98481.19;4898408;29;20135;-79
2021/03/18 07:12:09;;;;;;;6.57;4.80;;;;;;;7.93;51.61;98485.97;4881593;29;20028;-79
2021/03/18 07:14:43;;;;;;;8.00;4.90;;;;;;;8.01;51.22;98490.72;4898698;29;20032;-77
2021/03/18 07:17:20;;;;;;;5.30;4.22;;;;;;;8.06;51.08;98489.91;4880732;29;20562;-79
2021/03/18 07:19:45;;;;;;;5.28;4.03;;;;;;;8.08;50.33;98492.31;4880413;29;20132;-76
2021/03/18 07:22:19;;;;;;;5.22;4.05;;;;;;;8.15;50.21;98485.63;4898094;29;20052;-79
2021/03/18 07:24:52;;;;;;;6.20;4.45;;;;;;;8.22;49.50;98495.19;4883261;29;20039;-79
2021/03/18 07:27:17;;;;;;;5.32;3.78;;;;;;;8.23;49.72;98502.13;4883380;29;20028;-79
2021/03/18 07:29:48;;;;;;;3.75;3.13;;;;;;;8.25;49.29;98495.44;4883254;29;20056;-79
2021/03/18 07:32:14;;;;;;;5.03;4.00;;;;;;;8.31;49.60;98504.19;4883009;29;20048;-79
2021/03/18 07:34:41;;;;;;;4.60;3.55;;;;;;;8.33;49.00;98502.06;4898645;29;20029;-79
2021/03/18 07:37:08;;;;;;;5.53;4.15;;;;;;;8.40;49.57;98505.22;4881148;29;20032;-78
2021/03/18 07:39:35;;;;;;;6.40;5.22;;;;;;;8.46;49.51;98506.00;4881284;29;20036;-76
2021/03/18 07:42:02;;;;;;;4.68;4.00;;;;;;;8.53;49.15;98503.03;4882736;29;20143;-79
2021/03/18 07:44:28;;;;;;;5.57;4.00;;;;;;;8.62;49.21;98504.06;4881545;29;20032;-77
2021/03/18 07:46:55;;;;;;;5.13;3.88;;;;;;;8.69;48.90;98498.41;4880481;29;20044;-77
2021/03/18 07:49:24;;;;;;;5.13;4.05;;;;;;;8.75;47.86;98502.63;4885760;29;20481;-77
2021/03/18 07:51:54;;;;;;;4.78;3.40;;;;;;;8.78;48.23;98510.88;4901437;29;20044;-79
2021/03/18 07:54:22;;;;;;;4.47;3.60;;;;;;;8.89;48.48;98510.81;4902121;29;20485;-79
2021/03/18 07:56:53;;;;;;;5.45;3.80;;;;;;;8.94;47.78;98506.22;4885301;29;20037;-79
2021/03/18 07:59:28;;;;;;;5.78;2.80;;;;;;;9.04;47.78;98517.91;4883993;29;20834;-79
2021/03/18 08:02:08;;;;;;;4.18;3.75;;;;;;;9.10;47.83;98508.78;4884372;29;20036;-79
2021/03/18 08:04:42;;;;;;;4.93;3.55;;;;;;;9.18;47.23;98502.84;4901628;29;20040;-78
2021/03/18 08:07:08;;;;;;;4.35;3.85;;;;;;;9.23;46.22;98507.34;4883678;29;20081;-79
2021/03/18 08:09:33;;;;;;;4.80;3.60;;;;;;;9.31;46.62;98508.63;4883786;29;20029;-79
2021/03/18 08:11:59;;;;;;;4.32;3.75;;;;;;;9.35;46.50;98510.44;4900016;29;20038;-79
2021/03/18 08:14:24;;;;;;;4.70;3.40;;;;;;;9.41;45.79;98506.66;4882226;29;20497;-79
2021/03/18 08:16:51;;;;;;;4.07;3.47;;;;;;;9.46;45.13;98503.16;4882475;29;20036;-78
2021/03/18 08:19:19;;;;;;;3.53;3.22;;;;;;;9.49;45.35;98515.13;4883470;29;20060;-80
2021/03/18 08:21:49;;;;;;;3.97;3.50;;;;;;;9.47;45.07;98503.94;4882124;29;20155;-78
2021/03/18 08:24:15;;;;;;;5.63;4.28;;;;;;;9.50;45.00;98516.72;4882552;29;20088;-77
2021/03/18 08:26:47;;;;;;;4.60;3.47;;;;;;;9.53;45.14;98524.16;4883287;29;20036;-79
2021/03/18 08:29:38;;;;;;;5.97;4.20;;;;;;;9.53;45.55;98516.16;4881897;29;20029;-79
2021/03/18 08:32:04;;;;;;;5.60;3.80;;;;;;;9.53;44.90;98510.81;4898608;29;20485;-79
2021/03/18 08:34:57;;;;;;;4.97;3.53;;;;;;;9.52;44.94;98518.03;4882179;29;20063;-79
2021/03/18 08:37:43;;;;;;;5.88;3.85;;;;;;;9.53;45.14;98524.16;4898750;29;20190;-78
2021/03/18 08:40:20;;;;;;;5.95;3.75;;;;;;;9.54;45.42;98521.19;4897581;29;20472;-79
2021/03/18 08:42:47;;;;;;;4.45;3.33;;;;;;;9.53;45.64;98518.81;4882024;29;20140;-79
2021/03/18 08:45:19;;;;;;;4.15;3.75;;;;;;;9.51;45.40;98524.44;4882052;29;20412;-79
2021/03/18 08:47:47;;;;;;;6.28;3.88;;;;;;;9.54;45.25;98525.75;4898468;29;20036;-77
2021/03/18 08:50:34;;;;;;;5.88;3.97;;;;;;;9.57;45.75;98519.84;4897791;29;20032;-78
2021/03/18 08:53:03;;;;;;;5.75;3.92;;;;;;;9.63;45.29;98523.25;4880657;29;20040;-78
2021/03/18 08:55:47;;;;;;;4.53;3.80;;;;;;;9.63;44.88;98512.59;4880686;29;20029;-77
2021/03/18 08:58:14;;;;;;;5.47;3.58;;;;;;;9.65;44.92;98519.22;4880503;29;20124;-77
2021/03/18 09:00:41;;;;;;;4.70;3.67;;;;;;;9.70;44.65;98523.72;4880610;29;20176;-78
2021/03/18 09:03:08;;;;;;;5.43;3.65;;;;;;;9.68;44.81;98521.34;4880578;29;20039;-78
2021/03/18 09:05:34;;;;;;;5.70;3.58;;;;;;;9.69;44.46;98525.63;4880764;29;20060;-79
2021/03/18 09:08:04;;;;;;;6.10;3.78;;;;;;;9.71;44.56;98522.66;4897559;29;20032;-77
2021/03/18 09:10:34;;;;;;;5.28;3.60;;;;;;;9.72;44.14;98526.91;4880510;29;20039;-78
2021/03/18 09:13:12;;;;;;;3.47;3.17;;;;;;;9.77;43.15;98521.53;4880591;29;20496;-78
2021/03/18 09:15:41;;;;;;;4.47;3.72;;;;;;;9.74;42.89;98522.06;4880622;29;20067;-77
2021/03/18 09:18:20;;;;;;;3.40;3.10;;;;;;;9.79;43.27;98524.72;4880126;29;20519;-78
2021/03/18 09:20:50;;;;;;;3.53;3.15;;;;;;;9.82;43.52;98510.00;4880179;29;20036;-79
2021/03/18 09:23:24;;;;;;;3.65;2.75;;;;;;;9.87;42.39;98516.06;4880221;29;20036;-79
2021/03/18 09:25:52;;;;;;;3.42;3.00;;;;;;;9.90;42.35;98522.72;4880397;29;20037;-77
2021/03/18 09:28:18;;;;;;;6.93;3.67;;;;;;;9.95;42.18;98520.00;4880165;29;20056;-79
2021/03/18 09:30:51;;;;;;;4.75;2.95;;;;;;;10.00;41.68;98521.81;4880295;29;20492;-79
2021/03/18 09:33:19;;;;;;;2.58;2.35;;;;;;;9.98;42.13;98524.75;4879862;29;20058;-79
2021/03/18 09:35:46;;;;;;;4.00;3.05;;;;;;;10.05;42.25;98527.88;4880151;29;20043;-79
2021/03/18 09:38:17;;;;;;;3.13;2.60;;;;;;;10.15;41.59;98526.19;4896398;29;20511;-79
2021/03/18 09:40:43;;;;;;;4.22;2.33;;;;;;;10.18;40.97;98525.59;4880098;29;20150;-79
2021/03/18 09:43:09;;;;;;;4.38;3.38;;;;;;;10.22;41.56;98531.97;4879608;29;20471;-79
2021/03/18 09:45:34;;;;;;;7.28;4.00;;;;;;;10.26;41.33;98522.28;4896811;29;20053;-79
2021/03/18 09:48:00;;;;;;;8.32;3.65;;;;;;;10.29;40.93;98523.59;4879951;29;20393;-79
2021/03/18 09:50:29;;;;;;;7.32;3.50;;;;;;;10.35;41.03;98528.59;4879669;29;20108;-79
2021/03/18 09:53:10;;;;;;;6.30;2.78;;;;;;;10.42;41.01;98522.91;4879892;29;20067;-78
2021/03/18 09:55:36;;;;;;;2.75;2.10;;;;;;;10.45;39.96;98519.69;4879804;29;20033;-78
2021/03/18 09:58:10;;;;;;;7.38;3.20;;;;;;;10.53;41.17;98520.91;4879651;29;20382;-77
2021/03/18 10:00:35;;;;;;;3.05;2.67;;;;;;;10.59;41.17;98522.44;4879713;29;20025;-77
2021/03/18 10:03:01;;;;;;;3.22;2.45;;;;;;;10.68;39.97;98520.72;4879666;29;20409;-78
2021/03/18 10:05:27;;;;;;;3.35;2.95;;;;;;;10.71;39.95;98514.75;4879273;29;20040;-79
2021/03/18 10:07:57;;;;;;;2.30;2.08;;;;;;;10.77;39.89;98523.53;4879530;29;20036;-79
2021/03/18 10:10:23;;;;;;;2.53;1.98;;;;;;;10.84;39.86;98518.59;4895533;29;20119;-78
2021/03/18 10:12:52;;;;;;;3.83;2.92;;;;;;;10.90;39.73;98519.34;4879427;29;20132;-78
2021/03/18 10:15:19;;;;;;;3.10;2.38;;;;;;;10.97;39.10;98522.41;4879435;29;20032;-78
2021/03/18 10:17:46;;;;;;;4.07;3.38;;;;;;;11.01;39.45;98515.41;4879543;29;20032;-78
2021/03/18 10:20:29;;;;;;;3.22;2.92;;;;;;;11.03;39.73;98518.59;4879189;29;20032;-78
2021/03/18 10:23:23;;;;;;;3.08;2.72;;;;;;;11.09;39.32;98524.63;4879413;29;20516;-78
2021/03/18 10:25:49;;;;;;;2.45;2.25;;;;;;;11.10;38.74;98514.75;4890905;29;20426;-77
2021/03/18 10:28:15;;;;;;;2.60;2.40;;;;;;;11.14;39.85;98516.53;4879187;29;20032;-78
2021/03/18 10:30:43;;;;;;;3.63;2.67;;;;;;;11.21;39.30;98513.50;4879419;29;20155;-77
2021/03/18 10:33:13;;;;;;;5.53;2.85;;;;;;;11.24;38.91;98520.91;4879055;29;20025;-78
2021/03/18 10:35:46;;;;;;;4.10;2.80;;;;;;;11.30;38.41;98527.00;4879331;29;20032;-78
2021/03/18 10:38:15;;;;;;;2.70;2.50;;;;;;;11.35;38.10;98527.72;4879094;29;20060;-77
2021/03/18 10:40:45;;;;;;;3.08;2.40;;;;;;;11.40;38.43;98518.00;4878980;29;20488;-78
2021/03/18 10:43:41;;;;;;;4.47;3.25;;;;;;;11.45;37.97;98520.56;4878689;29;20060;-78
2021/03/18 10:46:09;;;;;;;2.50;2.30;;;;;;;11.49;38.01;98502.84;4877654;29;20048;-78
2021/03/18 10:48:36;;;;;;;3.28;2.90;;;;;;;11.54;38.11;98508.09;4879366;29;20140;-77
2021/03/18 10:51:14;;;;;;;3.00;2.13;;;;;;;11.52;38.43;98510.28;4879388;29;20032;-78
2021/03/18 10:53:42;;;;;;;3.53;2.42;;;;;;;11.52;38.49;98496.88;4879276;29;20093;-78
2021/03/18 10:56:13;;;;;;;4.07;2.90;;;;;;;11.57;37.96;98490.66;4879162;29;20029;-77
2021/03/18 10:58:42;;;;;;;2.60;2.38;;;;;;;11.58;38.16;98503.72;4879337;29;20293;-78
2021/03/18 11:01:10;;;;;;;3.13;2.63;;;;;;;11.60;38.37;98504.25;4879320;29;20033;-78
2021/03/18 11:03:40;;;;;;;3.97;2.78;;;;;;;11.63;38.22;98492.94;4879265;29;20039;-78
2021/03/18 11:06:17;;;;;;;2.30;2.10;;;;;;;11.57;36.66;98502.16;4879385;29;20470;-78
2021/03/18 11:08:51;;;;;;;2.35;2.10;;;;;;;11.55;36.20;98504.34;4879282;29;20032;-78
2021/03/18 11:11:32;;;;;;;2.28;2.08;;;;;;;11.51;36.14;98496.09;4895854;29;20029;-78
2021/03/18 11:14:12;;;;;;;2.70;2.50;;;;;;;11.54;37.06;98498.19;4896044;29;20089;-78
2021/03/18 11:16:40;;;;;;;2.63;2.35;;;;;;;11.57;36.03;98487.97;4878977;29;20040;-78
2021/03/18 11:19:09;;;;;;;3.08;2.50;;;;;;;11.59;36.66;98491.94;4879088;29;20119;-78
2021/03/18 11:21:37;;;;;;;2.92;2.42;;;;;;;11.59;37.10;98491.16;4896852;29;20032;-79
2021/03/18 11:24:13;;;;;;;2.90;2.40;;;;;;;11.67;37.48;98485.13;4882639;29;20029;-79
2021/03/18 11:26:42;;;;;;;3.90;2.70;;;;;;;11.71;37.23;98483.44;4882543;29;20564;-79
2021/03/18 11:29:14;;;;;;;3.45;3.00;;;;;;;11.74;36.33;98487.38;4882291;29;20044;-79
2021/03/18 11:31:43;;;;;;;2.85;2.45;;;;;;;11.75;36.50;98491.66;4882321;29;20028;-78
2021/03/18 11:34:12;;;;;;;;;;;;;;;11.77;36.66;98476.88;4882825;29;20034;-77
2021/03/18 11:36:38;;;;;;;2.70;2.50;;;;;;;11.82;36.29;98476.78;4899193;29;19955;-78
2021/03/18 11:39:03;;;;;;;4.07;2.58;;;;;;;11.87;36.37;98473.19;4882394;29;20116;-79
2021/03/18 11:41:29;;;;;;;3.38;2.35;;;;;;;11.85;35.52;98473.50;4881841;29;20056;-79
2021/03/18 11:43:54;;;;;;;2.17;2.08;;;;;;;11.89;36.04;98471.03;4882186;29;20119;-79
2021/03/18 11:46:21;;;;;;;4.15;2.20;;;;;;;11.95;36.11;98472.50;4881879;29;20032;-78
2021/03/18 11:48:47;;;;;;;2.72;2.53;;;;;;;11.97;36.35;98470.38;4882078;29;20120;-78
2021/03/18 11:51:12;;;;;;;4.55;2.10;;;;;;;12.00;36.32;98471.66;4881772;29;20123;-78
2021/03/18 11:53:37;;;;;;;2.55;2.28;;;;;;;12.05;35.92;98470.72;4881976;29;20024;-78
2021/03/18 11:56:03;;;;;;;2.85;2.55;;;;;;;12.07;36.07;98476.59;4898774;29;20477;-78
2021/03/18 11:58:28;;;;;;;2.05;1.90;;;;;;;12.12;35.52;98465.75;4881468;29;20417;-78
2021/03/18 12:00:54;;;;;;;2.50;2.30;;;;;;;12.15;35.13;98475.91;4881779;29;20036;-78
2021/03/18 12:03:19;;;;;;;2.33;1.95;;;;;;;12.13;34.76;98470.03;4881588;29;20033;-76
2021/03/18 12:05:45;;;;;;;2.40;2.20;;;;;;;12.09;34.71;98469.84;4881801;29;20029;-77
2021/03/18 12:08:11;;;;;;;2.47;2.10;;;;;;;12.10;35.02;98474.09;4881674;29;20040;-77
2021/03/18 12:10:38;;;;;;;2.10;1.95;;;;;;;12.03;34.72;98464.91;4881464;29;20052;-77
2021/03/18 12:13:03;;;;;;;2.70;2.10;;;;;;;11.99;35.14;98472.75;4898433;29;20028;-77
2021/03/18 12:15:28;;;;;;;2.60;2.40;;;;;;;11.99;34.81;98468.16;4880801;29;20035;-77
2021/03/18 12:17:54;;;;;;;2.33;1.40;;;;;;;11.98;34.47;98471.94;4880767;29;20044;-77
2021/03/18 12:20:22;;;;;;;2.63;2.35;;;;;;;11.98;34.46;98460.44;4880551;29;20029;-77
2021/03/18 12:22:48;;;;;;;;;;;;;;;12.00;35.36;98468.97;4881308;29;20092;-77
2021/03/18 12:25:15;;;;;;;3.70;2.78;;;;;;;11.95;36.19;98464.47;4880655;29;20335;-77
2021/03/18 12:27:41;;;;;;;2.63;2.38;;;;;;;11.88;35.31;98472.13;4880578;29;20033;-77
2021/03/18 12:30:09;;;;;;;3.03;2.20;;;;;;;11.89;35.51;98478.25;4897392;29;20061;-77
2021/03/18 12:32:35;;;;;;;3.13;2.58;;;;;;;11.79;34.93;98474.69;4896740;29;20037;-76
2021/03/18 12:35:00;;;;;;;2.33;2.13;;;;;;;11.74;35.03;98476.69;4897850;29;20088;-76
2021/03/18 12:37:26;;;;;;;3.70;2.83;;;;;;;11.70;35.79;98479.16;4897314;29;20028;-76
2021/03/18 12:39:51;;;;;;;3.35;2.70;;;;;;;11.65;36.22;98481.94;4880605;29;20124;-77
2021/03/18 12:42:17;;;;;;;2.78;2.58;;;;;;;11.59;36.11;98483.91;4880523;29;20058;-77
2021/03/18 12:44:43;;;;;;;3.33;2.40;;;;;;;11.56;35.41;98484.50;4897509;29;20036;-77
2021/03/18 12:47:09;;;;;;;3.92;2.17;;;;;;;11.47;35.47;98481.69;4880336;29;20032;-77
2021/03/18 12:49:35;;;;;;;3.58;2.58;;;;;;;11.45;36.18;98480.41;4880485;29;20028;-77
2021/03/18 12:52:02;;;;;;;3.33;2.78;;;;;;;11.44;35.74;98478.84;4897733;29;20037;-77
2021/03/18 12:54:28;;;;;;;3.35;2.95;;;;;;;11.43;36.68;98483.41;4896975;29;20040;-77
2021/03/18 12:56:53;;;;;;;4.03;2.10;;;;;;;11.41;34.76;98479.44;4880199;29;20028;-77
2021/03/18 12:59:19;;;;;;;2.22;1.98;;;;;;;11.43;35.44;98491.41;4897187;29;20025;-77